Time;durP1;ratioP1;P1;durP2;ratioP2;P2;SDS_P1;SDS_P2;PMS_P1;PMS_P2;Temp;Humidity;BMP_temperature;BMP_pressure;BME280_temperature;BME280_humidity;BME280_pressure;Samples;Min_cycle;Max_cycle;Signal;HPM_P1;HPM_P2
2023/06/06 00:00:33;;;;;;;5.18;1.83;;;;;;;;;;5114358;28;20085;-64
2023/06/06 00:02:59;;;;;;;5.38;2.00;;;;;;;;;;5114684;28;20064;-66
2023/06/06 00:05:29;;;;;;;3.70;1.83;;;;;;;;;;5113839;27;20060;-65
2023/06/06 00:07:54;;;;;;;3.75;1.92;;;;;;;;;;5101640;28;20106;-64
2023/06/06 00:10:20;;;;;;;5.18;1.90;;;;;;;;;;5094076;28;20120;-66
2023/06/06 00:12:46;;;;;;;4.35;1.80;;;;;;;;;;5094023;28;20107;-65
2023/06/06 00:15:14;;;;;;;9.13;1.70;;;;;;;;;;5093672;28;20024;-63
2023/06/06 00:17:41;;;;;;;4.53;1.50;;;;;;;;;;5093954;28;20074;-65
2023/06/06 00:20:09;;;;;;;4.18;2.05;;;;;;;;;;5093898;28;20039;-65
2023/06/06 00:22:36;;;;;;;5.65;2.33;;;;;;;;;;5093860;28;20032;-63
2023/06/06 00:25:03;;;;;;;3.58;1.90;;;;;;;;;;5093119;28;20043;-63
2023/06/06 00:27:29;;;;;;;5.00;2.10;;;;;;;;;;5093953;28;20056;-62
2023/06/06 00:29:55;;;;;;;3.92;2.03;;;;;;;;;;5093514;28;20191;-63
2023/06/06 00:32:20;;;;;;;4.80;1.80;;;;;;;;;;5093727;28;20051;-62
2023/06/06 00:34:46;;;;;;;3.33;1.80;;;;;;;;;;5093810;28;20027;-62
2023/06/06 00:37:11;;;;;;;3.20;1.95;;;;;;;;;;5104361;28;20056;-63
2023/06/06 00:39:37;;;;;;;4.65;2.03;;;;;;;;;;5108352;28;20032;-62
2023/06/06 00:42:02;;;;;;;3.35;1.60;;;;;;;;;;5114037;28;20028;-64
2023/06/06 00:44:28;;;;;;;4.18;1.85;;;;;;;;;;5096150;28;20028;-64
2023/06/06 00:46:53;;;;;;;3.90;1.85;;;;;;;;;;5093308;28;20079;-63
2023/06/06 00:49:19;;;;;;;5.05;2.00;;;;;;;;;;5093506;28;20081;-62
2023/06/06 00:51:45;;;;;;;3.28;2.00;;;;;;;;;;5092598;28;20020;-65
2023/06/06 00:54:13;;;;;;;6.07;1.90;;;;;;;;;;5093514;28;20028;-65
2023/06/06 00:56:39;;;;;;;5.70;2.13;;;;;;;;;;5092115;28;20492;-67
2023/06/06 00:59:06;;;;;;;3.30;1.90;;;;;;;;;;5092945;28;20078;-65
2023/06/06 01:01:34;;;;;;;7.32;1.75;;;;;;;;;;5093360;28;20408;-66
2023/06/06 01:04:04;;;;;;;3.30;2.00;;;;;;;;;;5093251;28;20019;-65
2023/06/06 01:06:34;;;;;;;3.70;1.90;;;;;;;;;;5093269;28;20027;-65
2023/06/06 01:09:05;;;;;;;7.07;2.50;;;;;;;;;;5072784;28;20032;-62
2023/06/06 01:11:59;;;;;;;4.03;2.05;;;;;;;;;;5074009;28;20070;-62
2023/06/06 01:14:40;;;;;;;6.03;2.15;;;;;;;;;;5087063;28;20036;-64
2023/06/06 01:17:09;;;;;;;3.72;2.15;;;;;;;;;;5091622;28;20081;-62
2023/06/06 01:19:37;;;;;;;5.95;2.05;;;;;;;;;;5092954;28;20051;-62
2023/06/06 01:22:04;;;;;;;3.97;1.92;;;;;;;;;;5096002;28;20027;-62
2023/06/06 01:24:31;;;;;;;4.82;2.10;;;;;;;;;;5113299;28;20069;-63
2023/06/06 01:26:56;;;;;;;4.57;2.40;;;;;;;;;;5113126;28;20380;-62
2023/06/06 01:29:22;;;;;;;5.95;2.40;;;;;;;;;;5097946;28;20039;-62
2023/06/06 01:32:22;;;;;;;4.28;2.60;;;;;;;;;;5092895;28;20042;-63
2023/06/06 01:35:07;;;;;;;4.40;2.22;;;;;;;;;;5092883;28;20592;-62
2023/06/06 01:37:52;;;;;;;4.32;2.05;;;;;;;;;;5092792;28;20112;-62
2023/06/06 01:40:19;;;;;;;4.07;2.10;;;;;;;;;;5111249;28;20039;-64
2023/06/06 01:42:49;;;;;;;5.55;2.00;;;;;;;;;;5112896;28;20457;-62
2023/06/06 01:45:18;;;;;;;4.22;1.98;;;;;;;;;;5113076;28;20035;-62
2023/06/06 01:47:44;;;;;;;5.05;2.10;;;;;;;;;;5103840;28;20043;-62
2023/06/06 01:50:11;;;;;;;6.45;2.22;;;;;;;;;;5092813;28;20051;-62
2023/06/06 01:52:37;;;;;;;7.18;2.08;;;;;;;;;;5092576;28;20036;-62
2023/06/06 01:55:07;;;;;;;3.78;2.25;;;;;;;;;;5092568;28;20034;-62
2023/06/06 01:57:33;;;;;;;9.27;2.70;;;;;;;;;;5092578;28;20362;-62
2023/06/06 01:59:59;;;;;;;4.55;2.33;;;;;;;;;;5092295;28;20032;-63
2023/06/06 02:02:26;;;;;;;10.55;2.53;;;;;;;;;;5092678;28;20031;-62
2023/06/06 02:04:51;;;;;;;2.88;1.90;;;;;;;;;;5092875;28;20028;-62
2023/06/06 02:07:17;;;;;;;5.20;2.00;;;;;;;;;;5092453;28;20032;-61
2023/06/06 02:09:43;;;;;;;4.47;2.10;;;;;;;;;;5092504;28;20039;-62
2023/06/06 02:12:09;;;;;;;3.88;2.08;;;;;;;;;;5092451;28;20067;-62
2023/06/06 02:14:35;;;;;;;7.90;2.35;;;;;;;;;;5092615;28;20496;-62
2023/06/06 02:17:01;;;;;;;4.35;2.30;;;;;;;;;;5092481;28;20028;-62
2023/06/06 02:19:27;;;;;;;8.93;2.70;;;;;;;;;;5092389;28;20036;-63
2023/06/06 02:21:52;;;;;;;5.40;2.30;;;;;;;;;;5093908;28;20020;-63
2023/06/06 02:24:18;;;;;;;5.53;2.13;;;;;;;;;;5112623;28;20385;-62
2023/06/06 02:26:44;;;;;;;7.25;2.15;;;;;;;;;;5112912;28;20028;-62
2023/06/06 02:29:10;;;;;;;7.72;1.92;;;;;;;;;;5100717;28;20032;-62
2023/06/06 02:31:39;;;;;;;4.30;2.10;;;;;;;;;;5096238;28;20039;-64
2023/06/06 02:34:05;;;;;;;6.93;1.90;;;;;;;;;;5096266;28;20021;-62
2023/06/06 02:36:31;;;;;;;4.63;2.15;;;;;;;;;;5096012;28;20031;-62
2023/06/06 02:38:57;;;;;;;5.60;2.30;;;;;;;;;;5102833;28;20030;-64
2023/06/06 02:41:23;;;;;;;5.38;2.40;;;;;;;;;;5116530;28;20036;-62
2023/06/06 02:43:49;;;;;;;4.65;2.47;;;;;;;;;;5116433;28;20107;-65
2023/06/06 02:46:15;;;;;;;8.93;2.58;;;;;;;;;;5115161;28;20093;-62
2023/06/06 02:48:45;;;;;;;7.80;2.17;;;;;;;;;;5099139;28;20068;-62
2023/06/06 02:51:11;;;;;;;10.02;2.60;;;;;;;;;;5095954;28;20070;-62
2023/06/06 02:53:40;;;;;;;11.50;2.70;;;;;;;;;;5095528;28;20463;-63
2023/06/06 02:56:06;;;;;;;10.47;2.90;;;;;;;;;;5095838;28;20043;-62
2023/06/06 02:58:32;;;;;;;13.70;3.42;;;;;;;;;;5095775;28;20264;-62
2023/06/06 03:00:58;;;;;;;9.57;2.92;;;;;;;;;;5095694;28;20385;-62
2023/06/06 03:03:24;;;;;;;17.52;7.35;;;;;;;;;;5095731;28;20028;-62
2023/06/06 03:05:51;;;;;;;10.52;5.60;;;;;;;;;;5095316;28;20038;-62
2023/06/06 03:08:21;;;;;;;10.05;3.75;;;;;;;;;;5095212;28;20020;-62
2023/06/06 03:10:50;;;;;;;9.30;3.25;;;;;;;;;;5095505;28;20039;-63
2023/06/06 03:13:16;;;;;;;9.80;2.83;;;;;;;;;;5095370;28;20122;-64
2023/06/06 03:15:46;;;;;;;12.48;4.68;;;;;;;;;;5095459;28;20134;-62
2023/06/06 03:18:16;;;;;;;15.30;4.63;;;;;;;;;;5095392;28;20042;-62
2023/06/06 03:20:44;;;;;;;12.85;4.28;;;;;;;;;;5095373;28;20119;-62
2023/06/06 03:23:11;;;;;;;12.90;5.43;;;;;;;;;;5107445;28;20564;-63
2023/06/06 03:25:39;;;;;;;18.27;4.20;;;;;;;;;;5115444;28;20059;-62
2023/06/06 03:28:05;;;;;;;13.10;4.10;;;;;;;;;;5111025;28;20465;-62
2023/06/06 03:30:30;;;;;;;13.70;4.28;;;;;;;;;;5094941;28;20081;-63
2023/06/06 03:32:57;;;;;;;8.50;3.67;;;;;;;;;;5095025;28;20469;-62
2023/06/06 03:35:23;;;;;;;33.60;6.25;;;;;;;;;;5095000;28;20024;-63
2023/06/06 03:37:48;;;;;;;20.85;5.05;;;;;;;;;;5094620;28;20116;-62
2023/06/06 03:40:14;;;;;;;27.10;5.53;;;;;;;;;;5098946;28;20111;-64
2023/06/06 03:42:40;;;;;;;18.98;4.22;;;;;;;;;;5094741;28;20470;-64
2023/06/06 03:45:06;;;;;;;23.02;4.90;;;;;;;;;;5094686;28;20055;-65
2023/06/06 03:47:31;;;;;;;19.65;3.60;;;;;;;;;;5094489;28;20036;-65
2023/06/06 03:49:56;;;;;;;18.98;3.35;;;;;;;;;;5094651;28;20016;-65
2023/06/06 03:52:22;;;;;;;19.63;3.92;;;;;;;;;;5094402;28;20386;-65
2023/06/06 03:54:48;;;;;;;12.50;3.00;;;;;;;;;;5094592;28;20122;-65
2023/06/06 03:57:13;;;;;;;30.02;8.35;;;;;;;;;;5094366;28;20020;-65
2023/06/06 03:59:39;;;;;;;12.20;3.42;;;;;;;;;;5094258;28;20493;-65
2023/06/06 04:02:05;;;;;;;8.60;3.10;;;;;;;;;;5094607;28;20065;-65
2023/06/06 04:04:32;;;;;;;14.75;3.08;;;;;;;;;;5094517;28;20078;-65
2023/06/06 04:07:00;;;;;;;11.32;3.15;;;;;;;;;;5093940;28;20513;-65
2023/06/06 04:09:25;;;;;;;6.03;3.38;;;;;;;;;;5094163;28;20037;-64
2023/06/06 04:11:51;;;;;;;11.88;3.28;;;;;;;;;;5094211;28;20028;-63
2023/06/06 04:14:16;;;;;;;10.65;3.50;;;;;;;;;;5094140;28;20055;-65
2023/06/06 04:16:42;;;;;;;13.80;3.67;;;;;;;;;;5094153;28;20038;-64
2023/06/06 04:19:08;;;;;;;5.82;2.05;;;;;;;;;;5093886;28;20074;-65
2023/06/06 04:21:33;;;;;;;4.35;2.10;;;;;;;;;;5093783;28;20042;-65
2023/06/06 04:23:59;;;;;;;7.32;2.08;;;;;;;;;;5113190;28;20023;-63
2023/06/06 04:26:26;;;;;;;4.43;2.88;;;;;;;;;;5114306;28;20361;-66
2023/06/06 04:28:58;;;;;;;6.93;2.08;;;;;;;;;;5103035;28;20342;-65
2023/06/06 04:31:26;;;;;;;4.28;2.08;;;;;;;;;;5093900;28;20115;-65
2023/06/06 04:33:55;;;;;;;3.08;1.90;;;;;;;;;;5093779;28;20088;-64
2023/06/06 04:36:22;;;;;;;4.82;2.00;;;;;;;;;;5093589;28;20077;-65
2023/06/06 04:38:49;;;;;;;5.40;1.92;;;;;;;;;;5099461;28;20035;-65
2023/06/06 04:41:22;;;;;;;3.55;2.38;;;;;;;;;;5114095;28;20122;-65
2023/06/06 04:43:49;;;;;;;7.28;2.08;;;;;;;;;;5113717;28;20020;-65
2023/06/06 04:46:21;;;;;;;4.65;1.83;;;;;;;;;;5112657;28;20055;-62
2023/06/06 04:48:53;;;;;;;3.78;2.08;;;;;;;;;;5095766;28;20037;-63
2023/06/06 04:51:29;;;;;;;6.03;2.50;;;;;;;;;;5092903;28;20426;-63
2023/06/06 04:53:59;;;;;;;7.90;1.92;;;;;;;;;;5093372;28;20035;-65
2023/06/06 04:56:29;;;;;;;5.20;2.22;;;;;;;;;;5093421;28;20394;-62
2023/06/06 04:58:56;;;;;;;4.95;2.42;;;;;;;;;;5093198;28;20024;-62
2023/06/06 05:01:23;;;;;;;6.57;2.40;;;;;;;;;;5093372;28;20078;-62
2023/06/06 05:03:49;;;;;;;8.35;2.40;;;;;;;;;;5092909;28;20028;-64
2023/06/06 05:06:15;;;;;;;12.68;2.42;;;;;;;;;;5093126;28;20485;-62
2023/06/06 05:08:46;;;;;;;4.90;2.50;;;;;;;;;;5093099;28;20054;-61
2023/06/06 05:11:12;;;;;;;6.05;2.47;;;;;;;;;;5091897;28;20385;-62
2023/06/06 05:13:38;;;;;;;5.20;2.40;;;;;;;;;;5093099;28;20366;-62
2023/06/06 05:16:04;;;;;;;13.48;2.95;;;;;;;;;;5093085;28;20020;-65
2023/06/06 05:18:30;;;;;;;8.77;2.30;;;;;;;;;;5092821;28;20107;-66
2023/06/06 05:21:03;;;;;;;6.15;1.90;;;;;;;;;;5092899;28;20027;-67
2023/06/06 05:23:29;;;;;;;7.93;2.15;;;;;;;;;;5107913;28;20031;-66
2023/06/06 05:25:56;;;;;;;12.27;2.70;;;;;;;;;;5113187;28;20046;-66
2023/06/06 05:28:28;;;;;;;3.28;2.10;;;;;;;;;;5106154;28;20138;-67
2023/06/06 05:30:57;;;;;;;6.95;2.17;;;;;;;;;;5092861;28;20025;-66
2023/06/06 05:33:26;;;;;;;4.80;2.20;;;;;;;;;;5092654;28;20050;-67
2023/06/06 05:35:53;;;;;;;13.95;2.38;;;;;;;;;;5092743;28;20370;-66
2023/06/06 05:38:19;;;;;;;8.68;2.28;;;;;;;;;;5094239;28;20038;-66
2023/06/06 05:40:45;;;;;;;8.70;2.53;;;;;;;;;;5094181;28;20102;-65
2023/06/06 05:43:12;;;;;;;7.72;2.60;;;;;;;;;;5092473;28;20485;-66
2023/06/06 05:45:37;;;;;;;9.35;2.60;;;;;;;;;;5092524;28;20020;-66
2023/06/06 05:48:03;;;;;;;15.02;2.45;;;;;;;;;;5090810;28;20432;-65
2023/06/06 05:50:29;;;;;;;7.30;2.20;;;;;;;;;;5092478;28;20073;-65
2023/06/06 05:52:55;;;;;;;7.95;2.35;;;;;;;;;;5092334;28;20028;-66
2023/06/06 05:55:30;;;;;;;8.18;2.30;;;;;;;;;;5092471;28;20034;-65
2023/06/06 05:57:56;;;;;;;8.13;2.00;;;;;;;;;;5092246;28;20436;-66
2023/06/06 06:00:26;;;;;;;7.55;2.08;;;;;;;;;;5092391;28;20102;-65
2023/06/06 06:02:53;;;;;;;8.95;2.60;;;;;;;;;;5092188;28;20025;-66
2023/06/06 06:05:22;;;;;;;7.55;2.30;;;;;;;;;;5096104;28;20496;-66
2023/06/06 06:07:47;;;;;;;7.32;2.00;;;;;;;;;;5089371;28;20483;-63
2023/06/06 06:10:14;;;;;;;6.57;2.20;;;;;;;;;;5093101;28;20021;-66
2023/06/06 06:12:41;;;;;;;10.07;2.30;;;;;;;;;;5093597;28;20020;-63
2023/06/06 06:15:08;;;;;;;5.95;2.00;;;;;;;;;;5108135;28;20062;-63
2023/06/06 06:17:33;;;;;;;7.95;2.55;;;;;;;;;;5095916;28;20024;-63
2023/06/06 06:20:03;;;;;;;8.95;2.05;;;;;;;;;;5095827;28;20392;-63
2023/06/06 06:22:28;;;;;;;6.03;2.30;;;;;;;;;;5095586;28;20024;-64
2023/06/06 06:24:54;;;;;;;6.60;2.03;;;;;;;;;;5105235;28;20270;-66
2023/06/06 06:27:19;;;;;;;9.70;2.25;;;;;;;;;;5116269;28;20034;-63
2023/06/06 06:29:45;;;;;;;8.52;2.78;;;;;;;;;;5097493;28;20126;-65
2023/06/06 06:32:11;;;;;;;11.82;2.47;;;;;;;;;;5095524;28;20020;-66
2023/06/06 06:34:36;;;;;;;13.73;2.65;;;;;;;;;;5099025;28;20024;-65
2023/06/06 06:37:02;;;;;;;11.50;2.10;;;;;;;;;;5095294;28;20043;-63
2023/06/06 06:39:27;;;;;;;6.85;2.13;;;;;;;;;;5100411;28;20354;-62
2023/06/06 06:41:53;;;;;;;22.15;2.42;;;;;;;;;;5105502;28;20471;-65
2023/06/06 06:44:18;;;;;;;7.80;1.98;;;;;;;;;;5097856;28;20112;-63
2023/06/06 06:46:44;;;;;;;7.18;2.00;;;;;;;;;;5099690;28;20043;-64
2023/06/06 06:49:15;;;;;;;5.82;2.20;;;;;;;;;;5087568;28;20032;-64
2023/06/06 06:51:41;;;;;;;16.10;2.30;;;;;;;;;;5094639;28;20020;-64
2023/06/06 06:54:10;;;;;;;8.27;2.30;;;;;;;;;;5094612;28;20148;-64
2023/06/06 06:56:36;;;;;;;5.82;2.15;;;;;;;;;;5095282;28;20082;-64
2023/06/06 06:59:03;;;;;;;13.52;2.40;;;;;;;;;;5107486;28;20028;-63
2023/06/06 07:01:29;;;;;;;9.57;2.50;;;;;;;;;;5094069;28;20462;-64
2023/06/06 07:03:55;;;;;;;10.73;2.38;;;;;;;;;;5094718;28;20165;-64
2023/06/06 07:06:22;;;;;;;8.57;2.20;;;;;;;;;;5095084;28;20028;-64
2023/06/06 07:08:49;;;;;;;7.18;2.38;;;;;;;;;;5093953;28;20433;-64
2023/06/06 07:11:14;;;;;;;7.43;2.28;;;;;;;;;;5093346;28;20064;-64
2023/06/06 07:13:39;;;;;;;6.43;2.20;;;;;;;;;;5094831;28;20081;-64
2023/06/06 07:16:05;;;;;;;9.82;2.47;;;;;;;;;;5097034;28;20008;-64
2023/06/06 07:18:31;;;;;;;8.05;2.10;;;;;;;;;;5094413;28;20027;-63
2023/06/06 07:20:56;;;;;;;3.92;2.20;;;;;;;;;;5094754;28;20085;-63
2023/06/06 07:23:22;;;;;;;6.13;1.80;;;;;;;;;;5094086;28;20024;-63
2023/06/06 07:25:47;;;;;;;4.93;1.98;;;;;;;;;;5092505;28;20035;-66
2023/06/06 07:28:13;;;;;;;5.38;2.20;;;;;;;;;;5094682;28;20020;-65
2023/06/06 07:30:39;;;;;;;7.38;1.80;;;;;;;;;;5094003;28;20131;-64
2023/06/06 07:33:04;;;;;;;4.07;2.20;;;;;;;;;;5093728;28;20031;-64
2023/06/06 07:35:32;;;;;;;4.28;2.10;;;;;;;;;;5093864;28;20059;-64
2023/06/06 07:37:59;;;;;;;5.20;2.20;;;;;;;;;;5094228;28;20058;-64
2023/06/06 07:40:24;;;;;;;4.20;1.70;;;;;;;;;;5097221;28;20381;-64
2023/06/06 07:42:50;;;;;;;10.38;2.15;;;;;;;;;;5094028;28;20039;-64
2023/06/06 07:45:16;;;;;;;4.20;2.10;;;;;;;;;;5094189;28;20073;-64
2023/06/06 07:47:41;;;;;;;4.97;2.08;;;;;;;;;;5093176;28;20094;-64
2023/06/06 07:50:08;;;;;;;5.07;2.08;;;;;;;;;;5098122;28;20484;-64
2023/06/06 07:52:34;;;;;;;4.30;2.13;;;;;;;;;;5094307;28;20030;-64
2023/06/06 07:55:00;;;;;;;6.45;2.20;;;;;;;;;;5093923;28;20030;-64
2023/06/06 07:57:27;;;;;;;6.00;1.73;;;;;;;;;;5093395;28;20028;-64
2023/06/06 07:59:53;;;;;;;6.25;2.03;;;;;;;;;;5093274;28;20036;-64
2023/06/06 08:02:19;;;;;;;8.10;1.98;;;;;;;;;;5093923;28;20032;-64
2023/06/06 08:04:45;;;;;;;10.18;1.88;;;;;;;;;;5093237;28;20038;-64
2023/06/06 08:07:15;;;;;;;3.45;1.80;;;;;;;;;;5093380;28;20392;-63
2023/06/06 08:09:43;;;;;;;7.38;1.80;;;;;;;;;;5093651;28;20028;-64
2023/06/06 08:12:10;;;;;;;4.93;1.85;;;;;;;;;;5092930;28;20427;-64
2023/06/06 08:14:36;;;;;;;2.85;1.90;;;;;;;;;;5091892;28;20036;-65
2023/06/06 08:17:05;;;;;;;4.20;1.90;;;;;;;;;;5093482;28;20020;-64
2023/06/06 08:19:31;;;;;;;3.25;1.90;;;;;;;;;;5093004;28;20034;-64
2023/06/06 08:21:56;;;;;;;7.18;2.00;;;;;;;;;;5092734;28;20020;-64
2023/06/06 08:24:22;;;;;;;7.13;2.08;;;;;;;;;;5093738;28;20032;-64
2023/06/06 08:26:47;;;;;;;2.97;1.95;;;;;;;;;;5092097;28;20058;-64
2023/06/06 08:29:14;;;;;;;9.43;1.83;;;;;;;;;;5092685;28;20468;-65
2023/06/06 08:31:40;;;;;;;3.97;1.77;;;;;;;;;;5093054;28;20483;-65
2023/06/06 08:34:06;;;;;;;8.15;1.75;;;;;;;;;;5093444;28;20073;-64
2023/06/06 08:36:32;;;;;;;7.38;1.90;;;;;;;;;;5092287;28;20456;-65
2023/06/06 08:38:58;;;;;;;3.45;1.67;;;;;;;;;;5099943;28;20034;-65
2023/06/06 08:41:25;;;;;;;11.73;7.22;;;;;;;;;;5113272;28;20028;-64
2023/06/06 08:43:53;;;;;;;9.15;5.47;;;;;;;;;;5101846;28;20434;-64
2023/06/06 08:46:18;;;;;;;5.63;2.58;;;;;;;;;;5092389;28;20020;-64
2023/06/06 08:48:45;;;;;;;9.05;1.90;;;;;;;;;;5097196;28;20048;-65
2023/06/06 08:51:12;;;;;;;12.05;2.10;;;;;;;;;;5106406;28;20111;-64
2023/06/06 08:53:38;;;;;;;3.58;1.52;;;;;;;;;;5091918;28;20051;-64
2023/06/06 08:56:05;;;;;;;4.30;1.85;;;;;;;;;;5092886;28;20132;-65
2023/06/06 08:58:32;;;;;;;6.03;1.90;;;;;;;;;;5093005;28;20493;-64
2023/06/06 09:01:01;;;;;;;7.57;2.10;;;;;;;;;;5091252;28;20024;-64
2023/06/06 09:03:32;;;;;;;6.15;2.13;;;;;;;;;;5090933;28;20020;-64
2023/06/06 09:06:01;;;;;;;8.70;2.10;;;;;;;;;;5091580;28;20439;-65
2023/06/06 09:08:26;;;;;;;7.57;1.83;;;;;;;;;;5091786;28;20111;-65
2023/06/06 09:10:52;;;;;;;5.22;1.60;;;;;;;;;;5091013;28;20115;-65
2023/06/06 09:13:17;;;;;;;4.78;1.55;;;;;;;;;;5091520;28;20382;-64
2023/06/06 09:15:46;;;;;;;8.00;1.70;;;;;;;;;;5091717;28;20016;-64
2023/06/06 09:18:13;;;;;;;9.80;1.90;;;;;;;;;;5091249;28;20031;-64
2023/06/06 09:20:39;;;;;;;4.40;1.83;;;;;;;;;;5091294;28;20028;-64
2023/06/06 09:23:12;;;;;;;7.10;1.60;;;;;;;;;;5091449;28;20111;-64
2023/06/06 09:25:44;;;;;;;2.90;1.77;;;;;;;;;;5091110;28;20068;-64
2023/06/06 09:28:09;;;;;;;7.72;2.05;;;;;;;;;;5091184;28;20414;-64
2023/06/06 09:30:35;;;;;;;5.43;1.85;;;;;;;;;;5091272;28;20028;-65
2023/06/06 09:33:02;;;;;;;2.45;1.70;;;;;;;;;;5091071;28;20070;-64
2023/06/06 09:35:36;;;;;;;5.03;2.20;;;;;;;;;;5090583;28;20027;-64
2023/06/06 09:38:16;;;;;;;6.00;2.08;;;;;;;;;;5091353;28;20024;-65
2023/06/06 09:40:51;;;;;;;7.22;2.22;;;;;;;;;;5090687;28;20036;-65
2023/06/06 09:43:23;;;;;;;5.97;1.58;;;;;;;;;;5090901;28;20032;-64
2023/06/06 09:45:54;;;;;;;7.70;2.00;;;;;;;;;;5089066;28;20381;-64
2023/06/06 09:48:25;;;;;;;5.30;1.70;;;;;;;;;;5090845;28;20551;-64
2023/06/06 09:50:51;;;;;;;7.63;2.00;;;;;;;;;;5091050;28;20089;-64
2023/06/06 09:53:17;;;;;;;3.97;1.80;;;;;;;;;;5091205;28;20678;-64
2023/06/06 09:55:43;;;;;;;6.47;1.80;;;;;;;;;;5090905;28;20080;-64
2023/06/06 09:58:14;;;;;;;5.10;1.80;;;;;;;;;;5091043;28;20540;-65
2023/06/06 10:00:41;;;;;;;6.32;2.00;;;;;;;;;;5092110;28;20107;-64
2023/06/06 10:03:08;;;;;;;6.13;1.90;;;;;;;;;;5090643;28;20478;-64
2023/06/06 10:05:35;;;;;;;3.85;1.90;;;;;;;;;;5091187;28;20024;-64
2023/06/06 10:08:02;;;;;;;7.13;2.00;;;;;;;;;;5090768;28;20027;-64
2023/06/06 10:10:28;;;;;;;4.55;1.80;;;;;;;;;;5090553;28;20051;-64
2023/06/06 10:12:55;;;;;;;8.35;1.75;;;;;;;;;;5090082;28;20376;-64
2023/06/06 10:15:21;;;;;;;5.65;2.00;;;;;;;;;;5090730;28;20039;-65
2023/06/06 10:17:48;;;;;;;6.50;2.00;;;;;;;;;;5090697;28;20031;-64
2023/06/06 10:20:13;;;;;;;8.07;2.05;;;;;;;;;;5090314;28;20023;-64
2023/06/06 10:22:40;;;;;;;6.90;2.10;;;;;;;;;;5090859;28;20036;-64
2023/06/06 10:25:12;;;;;;;4.50;2.22;;;;;;;;;;5090337;28;20478;-64
2023/06/06 10:27:46;;;;;;;3.20;1.80;;;;;;;;;;5090916;28;20028;-65
2023/06/06 10:30:29;;;;;;;7.88;1.95;;;;;;;;;;5090807;28;20027;-64
2023/06/06 10:33:11;;;;;;;5.88;1.95;;;;;;;;;;5090386;28;20454;-64
2023/06/06 10:35:39;;;;;;;3.28;1.80;;;;;;;;;;5090769;28;20024;-64
2023/06/06 10:38:08;;;;;;;7.97;1.83;;;;;;;;;;5090103;28;20032;-64
2023/06/06 10:40:53;;;;;;;6.45;1.70;;;;;;;;;;5086945;28;20441;-64
2023/06/06 10:43:46;;;;;;;5.20;2.10;;;;;;;;;;5090146;28;20389;-64
2023/06/06 10:46:12;;;;;;;7.90;1.80;;;;;;;;;;5082547;28;20558;-64
2023/06/06 10:48:42;;;;;;;5.90;1.88;;;;;;;;;;5093595;28;20071;-64
2023/06/06 10:51:28;;;;;;;6.57;2.00;;;;;;;;;;5093269;28;20040;-64
2023/06/06 10:54:13;;;;;;;5.63;1.90;;;;;;;;;;5093297;28;20392;-64
2023/06/06 10:56:49;;;;;;;6.00;2.10;;;;;;;;;;5095239;28;20421;-64
2023/06/06 10:59:15;;;;;;;4.78;1.83;;;;;;;;;;5095186;28;20028;-64
2023/06/06 11:01:42;;;;;;;5.05;2.00;;;;;;;;;;5095019;28;20426;-64
2023/06/06 11:04:21;;;;;;;5.20;2.10;;;;;;;;;;5095120;28;20066;-64
2023/06/06 11:06:50;;;;;;;4.13;2.03;;;;;;;;;;5094379;28;20107;-64
2023/06/06 11:09:25;;;;;;;6.65;2.20;;;;;;;;;;5093757;28;20178;-64
2023/06/06 11:12:13;;;;;;;7.97;2.05;;;;;;;;;;5093669;28;20021;-64
2023/06/06 11:15:04;;;;;;;6.00;2.00;;;;;;;;;;5093862;28;20020;-64
2023/06/06 11:17:55;;;;;;;3.90;1.90;;;;;;;;;;5093637;28;20054;-64
2023/06/06 11:20:22;;;;;;;5.28;2.20;;;;;;;;;;5093385;28;20024;-64
2023/06/06 11:23:01;;;;;;;3.92;1.90;;;;;;;;;;5093135;28;20020;-64
2023/06/06 11:25:31;;;;;;;4.38;2.10;;;;;;;;;;5093560;28;20039;-64
2023/06/06 11:27:58;;;;;;;4.93;1.80;;;;;;;;;;5093704;28;20512;-64
2023/06/06 11:30:24;;;;;;;5.15;2.05;;;;;;;;;;5091845;28;20326;-64
2023/06/06 11:32:51;;;;;;;4.80;1.90;;;;;;;;;;5093544;28;20050;-64
2023/06/06 11:35:17;;;;;;;3.25;1.90;;;;;;;;;;5093046;28;20028;-63
2023/06/06 11:37:43;;;;;;;7.97;2.30;;;;;;;;;;5093013;28;20039;-64
2023/06/06 11:40:10;;;;;;;4.70;2.03;;;;;;;;;;5093523;28;20032;-64
2023/06/06 11:42:35;;;;;;;4.30;2.40;;;;;;;;;;5092907;28;20020;-63
2023/06/06 11:45:02;;;;;;;4.45;2.20;;;;;;;;;;5093574;28;20050;-63
2023/06/06 11:47:33;;;;;;;8.55;2.38;;;;;;;;;;5092973;28;20097;-64
2023/06/06 11:49:59;;;;;;;9.85;3.00;;;;;;;;;;5093057;28;20060;-64
2023/06/06 11:52:24;;;;;;;9.18;4.00;;;;;;;;;;5093257;28;20077;-64
2023/06/06 11:55:04;;;;;;;8.07;2.42;;;;;;;;;;5092214;28;20530;-64
2023/06/06 11:57:30;;;;;;;5.38;1.77;;;;;;;;;;5092960;28;20024;-64
2023/06/06 11:59:59;;;;;;;5.63;2.63;;;;;;;;;;5092708;28;20036;-64
2023/06/06 12:02:24;;;;;;;4.05;2.05;;;;;;;;;;5091670;28;20027;-64
2023/06/06 12:04:50;;;;;;;4.68;2.70;;;;;;;;;;5092802;28;20020;-63
2023/06/06 12:07:15;;;;;;;3.10;1.80;;;;;;;;;;5092804;28;20044;-64
2023/06/06 12:09:41;;;;;;;5.70;1.90;;;;;;;;;;5092394;28;20358;-64
2023/06/06 12:12:10;;;;;;;8.77;2.78;;;;;;;;;;5092562;28;20303;-63
2023/06/06 12:14:35;;;;;;;5.18;1.92;;;;;;;;;;5093002;28;20036;-63
2023/06/06 12:17:10;;;;;;;6.57;2.40;;;;;;;;;;5092417;28;20030;-64
2023/06/06 12:19:36;;;;;;;8.52;3.00;;;;;;;;;;5091537;28;20447;-64
2023/06/06 12:22:03;;;;;;;6.00;2.00;;;;;;;;;;5092538;28;20049;-64
2023/06/06 12:24:30;;;;;;;8.32;3.28;;;;;;;;;;5092026;28;20152;-63
2023/06/06 12:27:02;;;;;;;4.55;1.92;;;;;;;;;;5092515;28;20031;-64
2023/06/06 12:29:33;;;;;;;5.88;2.20;;;;;;;;;;5092372;28;20099;-63
2023/06/06 12:32:18;;;;;;;5.25;2.03;;;;;;;;;;5087586;28;20024;-64
2023/06/06 12:34:50;;;;;;;5.97;2.92;;;;;;;;;;5091537;28;20032;-64
2023/06/06 12:37:17;;;;;;;8.32;3.80;;;;;;;;;;5092011;28;20114;-64
2023/06/06 12:39:44;;;;;;;16.77;4.72;;;;;;;;;;5092157;28;20036;-64
2023/06/06 12:42:14;;;;;;;9.65;4.55;;;;;;;;;;5092328;28;20116;-64
2023/06/06 12:44:40;;;;;;;11.85;5.55;;;;;;;;;;5091721;28;20016;-64
2023/06/06 12:47:06;;;;;;;14.13;5.15;;;;;;;;;;5086398;28;20040;-64
2023/06/06 12:49:36;;;;;;;15.68;7.10;;;;;;;;;;5092155;28;20035;-64
2023/06/06 12:52:04;;;;;;;11.85;5.25;;;;;;;;;;5091463;28;20085;-64
2023/06/06 12:54:29;;;;;;;17.23;6.30;;;;;;;;;;5092198;28;20388;-63
2023/06/06 12:56:55;;;;;;;13.50;5.90;;;;;;;;;;5090499;28;20020;-64
2023/06/06 12:59:21;;;;;;;9.70;3.25;;;;;;;;;;5091532;28;20115;-64
2023/06/06 13:01:47;;;;;;;9.68;3.60;;;;;;;;;;5091867;28;20059;-64
2023/06/06 13:04:13;;;;;;;7.97;4.43;;;;;;;;;;5090733;28;20059;-64
2023/06/06 13:06:41;;;;;;;10.15;4.75;;;;;;;;;;5091708;28;20117;-65
2023/06/06 13:09:07;;;;;;;7.70;2.92;;;;;;;;;;5092148;28;20043;-66
2023/06/06 13:11:33;;;;;;;8.32;3.53;;;;;;;;;;5091779;28;20016;-65
2023/06/06 13:14:01;;;;;;;16.15;3.15;;;;;;;;;;5090906;28;20032;-65
2023/06/06 13:16:27;;;;;;;5.78;2.60;;;;;;;;;;5091721;28;20031;-65
2023/06/06 13:18:54;;;;;;;9.40;2.42;;;;;;;;;;5091339;28;20016;-65
2023/06/06 13:21:19;;;;;;;12.27;2.03;;;;;;;;;;5091252;28;20024;-64
2023/06/06 13:23:45;;;;;;;4.90;2.33;;;;;;;;;;5091517;28;20027;-65
2023/06/06 13:26:12;;;;;;;5.95;3.08;;;;;;;;;;5091300;28;20074;-65
2023/06/06 13:28:38;;;;;;;9.73;2.60;;;;;;;;;;5089731;28;20056;-65
2023/06/06 13:31:03;;;;;;;6.50;3.45;;;;;;;;;;5091236;28;20059;-65
2023/06/06 13:33:29;;;;;;;6.00;2.38;;;;;;;;;;5090940;28;20028;-65
2023/06/06 13:35:54;;;;;;;9.25;2.60;;;;;;;;;;5090952;28;20028;-65
2023/06/06 13:38:22;;;;;;;5.32;1.88;;;;;;;;;;5093415;28;20028;-65
2023/06/06 13:40:48;;;;;;;10.63;2.42;;;;;;;;;;5090898;28;20039;-65
2023/06/06 13:43:14;;;;;;;7.95;2.22;;;;;;;;;;5091428;28;20385;-64
2023/06/06 13:45:40;;;;;;;9.88;2.40;;;;;;;;;;5091261;28;20070;-65
2023/06/06 13:48:06;;;;;;;6.43;2.35;;;;;;;;;;5090823;28;20040;-65
2023/06/06 13:50:32;;;;;;;9.30;2.40;;;;;;;;;;5093752;28;20024;-66
2023/06/06 13:52:57;;;;;;;6.95;2.42;;;;;;;;;;5091183;28;20485;-64
2023/06/06 13:55:23;;;;;;;9.05;2.47;;;;;;;;;;5091197;28;20098;-64
2023/06/06 13:57:52;;;;;;;3.50;2.00;;;;;;;;;;5090874;28;20031;-64
2023/06/06 14:00:21;;;;;;;6.85;2.00;;;;;;;;;;5090752;28;20028;-64
2023/06/06 14:02:47;;;;;;;7.28;1.92;;;;;;;;;;5087390;28;20496;-64
2023/06/06 14:05:13;;;;;;;6.72;2.25;;;;;;;;;;5091013;28;20024;-64
2023/06/06 14:07:38;;;;;;;3.05;1.95;;;;;;;;;;5090749;28;20089;-64
2023/06/06 14:10:06;;;;;;;4.38;2.13;;;;;;;;;;5091194;28;20064;-64
2023/06/06 14:12:32;;;;;;;5.65;1.73;;;;;;;;;;5090447;28;20028;-64
2023/06/06 14:14:58;;;;;;;6.72;1.90;;;;;;;;;;5092016;28;20481;-64
2023/06/06 14:17:23;;;;;;;7.72;2.40;;;;;;;;;;5091978;28;20032;-64
2023/06/06 14:19:53;;;;;;;5.55;2.03;;;;;;;;;;5091896;28;20050;-64
2023/06/06 14:24:46;;;;;;;4.60;2.10;;;;;;;;;;5093032;28;20043;-64
2023/06/06 14:27:12;;;;;;;7.18;2.13;;;;;;;;;;5095965;28;20054;-64
2023/06/06 14:29:37;;;;;;;5.63;2.33;;;;;;;;;;5095805;28;20055;-64
2023/06/06 14:32:03;;;;;;;8.25;2.10;;;;;;;;;;5095663;28;20031;-64
2023/06/06 14:34:28;;;;;;;6.75;2.28;;;;;;;;;;5094833;28;20028;-64
2023/06/06 14:36:54;;;;;;;7.70;2.40;;;;;;;;;;5080491;28;20032;-64
2023/06/06 14:39:19;;;;;;;6.38;2.80;;;;;;;;;;5106051;28;20406;-63
2023/06/06 14:41:45;;;;;;;5.07;2.55;;;;;;;;;;5106736;27;20044;-64
2023/06/06 14:44:12;;;;;;;6.85;2.20;;;;;;;;;;5090477;28;20074;-63
2023/06/06 14:46:37;;;;;;;9.70;2.05;;;;;;;;;;5094876;28;20111;-63